Azure — ZCEE2 — position and weather

sailwx.info

Track history (hours):
 
Tides and Currents Weather Stations Pressure Air Temp Water Temp Dewpoint Dewpoint Depression Visibility Wind Speed Wind Dir Waves Ship Positions

Azure

Last reported at 2019-Apr-24 22:00 UTC. Time now 2019-Apr-24 22:11 UTC.
Position N 61°32' E 004°01'.

Length 289 m; draft 8.6 m.

Type: Passenger vessel. MMSI: 310610000.

Date/timePositionNaut miles runAvg speedWind from/ knotsBaromVisibWave heightAir tempDewpointWater temp
2019-Apr-24 22:00N 61°32' E 004°01'714.1
2019-Apr-24 21:30N 61°39' E 004°01'714.3
2019-Apr-24 21:00N 61°46' E 003°60'814.9
2019-Apr-24 20:30N 61°54' E 004°00'714.1
2019-Apr-24 19:59N 62°01' E 004°03'714.5
2019-Apr-24 19:30N 62°05' E 004°15'714.5
2019-Apr-24 19:00N 62°10' E 004°27'714.5
2019-Apr-24 18:30N 62°15' E 004°38'714.6
2019-Apr-24 18:00N 62°20' E 004°50'714.6
2019-Apr-24 17:30N 62°25' E 005°01'714.5
2019-Apr-24 17:00N 62°29' E 005°12'714.3
2019-Apr-24 16:30N 62°31' E 005°28'714.4
2019-Apr-24 16:00N 62°30' E 005°43'714.7
2019-Apr-24 15:30N 62°27' E 005°58'611.1
2019-Apr-24 14:58N 62°27' E 006°10'1 1.8
2019-Apr-24 14:29N 62°28' E 006°09'0 0.0
2019-Apr-24 13:46N 62°28' E 006°09'0 0.0
2019-Apr-24 13:22N 62°28' E 006°09'0 0.0
2019-Apr-24 12:34N 62°28' E 006°09'0 0.0
2019-Apr-24 12:28N 62°28' E 006°09'0 0.0
2019-Apr-24 12:00N 62°28' E 006°09'0 0.0
2019-Apr-24 11:29N 62°28' E 006°09'0 0.0
2019-Apr-24 10:56N 62°28' E 006°09'0 0.0
2019-Apr-24 10:29N 62°28' E 006°09'0 0.0
2019-Apr-24 09:56N 62°28' E 006°09'0 0.0
2019-Apr-24 09:29N 62°28' E 006°09'0 0.0
2019-Apr-24 08:59N 62°28' E 006°09'0 0.0
2019-Apr-24 08:29N 62°28' E 006°09'0 0.0
2019-Apr-24 08:00N 62°28' E 006°09'0 0.0
2019-Apr-24 07:22N 62°28' E 006°09'0 0.0
2019-Apr-24 06:58N 62°28' E 006°09'0 0.0
2019-Apr-24 06:22N 62°28' E 006°09'0 0.0
2019-Apr-24 05:58N 62°28' E 006°09'0 0.0
2019-Apr-24 05:29N 62°28' E 006°09'1 1.4
2019-Apr-24 05:00N 62°28' E 006°11'3 5.5
2019-Apr-24 04:29N 62°27' E 006°05'510.4
2019-Apr-24 04:00N 62°27' E 005°54'510.2
2019-Apr-24 03:30N 62°30' E 005°45'510.2
2019-Apr-24 03:00N 62°32' E 005°34'510.3
2019-Apr-24 02:30N 62°34' E 005°24'510.3
2019-Apr-24 02:00N 62°33' E 005°13'510.3
2019-Apr-24 01:30N 62°33' E 005°02'510.3
2019-Apr-24 01:00N 62°33' E 004°51'510.4
2019-Apr-24 00:30N 62°33' E 004°39'511.0
2019-Apr-24 00:00N 62°33' E 004°28'5 9.9
2019-Apr-23 23:30N 62°28' E 004°23'611.8
2019-Apr-23 23:00N 62°22' E 004°22'611.3
2019-Apr-23 22:30N 62°17' E 004°21'611.0
2019-Apr-23 21:59N 62°11' E 004°21'611.1
2019-Apr-23 21:29N 62°05' E 004°21'510.3
2019-Apr-23 20:59N 62°01' E 004°27'611.4
2019-Apr-23 20:30N 62°01' E 004°38'610.8
2019-Apr-23 19:58N 61°60' E 004°50'611.8
2019-Apr-23 19:30N 61°56' E 004°60'612.6
2019-Apr-23 19:00N 61°54' E 005°12'917.5
2019-Apr-23 18:30N 61°55' E 005°30'816.8
2019-Apr-23 18:00N 61°52' E 005°47'916.9
2019-Apr-23 17:30N 61°51' E 006°05'917.3
2019-Apr-23 17:00N 61°50' E 006°23'5 0.4
2019-Apr-23 05:37N 61°50' E 006°32'218.0
2019-Apr-23 05:30N 61°49' E 006°28'917.7
2019-Apr-23 05:00N 61°51' E 006°10'917.1
2019-Apr-23 04:30N 61°52' E 005°52'816.0
2019-Apr-23 04:00N 61°54' E 005°36'917.6
2019-Apr-23 03:30N 61°54' E 005°17'815.6
2019-Apr-23 03:00N 61°56' E 005°01'713.9
2019-Apr-23 02:30N 61°59' E 004°47'917.2
2019-Apr-23 02:00N 61°53' E 004°33'123258.6
2019-Apr-23 02:00N 61°42' E 004°24'4 7.3 140 / 251016.827.0 10.0 5.6 9.0
2019-Apr-23 01:30N 61°46' E 004°25'815.2
2019-Apr-23 00:59N 61°38' E 004°20'816.0
2019-Apr-23 00:30N 61°30' E 004°18'816.5
2019-Apr-23 00:00N 61°22' E 004°16'817.0
2019-Apr-22 23:30N 61°14' E 004°14'917.0
2019-Apr-22 23:00N 61°05' E 004°12'917.5
2019-Apr-22 22:30N 60°57' E 004°09'918.3
2019-Apr-22 22:00N 60°47' E 004°08'918.6
2019-Apr-22 21:30N 60°38' E 004°10'918.4
2019-Apr-22 21:00N 60°29' E 004°13'131492.5
2019-Apr-22 21:00N 60°42' E 004°06'2245.2 140 / 171016.427.0 10.0 6.8 8.0
2019-Apr-22 20:30N 60°20' E 004°10'918.1
2019-Apr-22 20:00N 60°11' E 004°12'918.5
2019-Apr-22 19:30N 60°02' E 004°19'918.5
2019-Apr-22 19:00N 59°54' E 004°26'918.5
2019-Apr-22 18:30N 59°45' E 004°33'918.0
2019-Apr-22 18:00N 59°37' E 004°40'918.1
2019-Apr-22 17:30N 59°29' E 004°48'918.4
2019-Apr-22 17:00N 59°21' E 004°56'918.5
2019-Apr-22 16:30N 59°12' E 005°02'816.8
2019-Apr-22 16:01N 59°06' E 005°14'917.5
2019-Apr-22 15:30N 59°06' E 005°31'816.6
2019-Apr-22 15:00N 58°60' E 005°42'2 3.1
2019-Apr-22 14:27N 58°58' E 005°44'0 0.0
2019-Apr-22 14:00N 58°58' E 005°44'0 0.0
2019-Apr-22 13:26N 58°58' E 005°44'0 0.0
2019-Apr-22 12:51N 58°58' E 005°44'0 0.0
2019-Apr-22 12:30N 58°58' E 005°44'0 0.0
2019-Apr-22 11:59N 58°58' E 005°44'0 0.0
2019-Apr-22 11:29N 58°58' E 005°44'0 0.0
2019-Apr-22 10:58N 58°58' E 005°44'0 0.0
2019-Apr-22 10:22N 58°58' E 005°44'0 0.0
2019-Apr-22 09:57N 58°58' E 005°44'0 0.0
2019-Apr-22 09:31N 58°58' E 005°44'0 0.0
2019-Apr-22 08:59N 58°58' E 005°44'0 0.0
2019-Apr-22 08:25N 58°58' E 005°44'0 0.0
2019-Apr-22 08:00N 58°58' E 005°44'0 0.0
2019-Apr-22 07:29N 58°58' E 005°44'0 0.0
2019-Apr-22 06:59N 58°58' E 005°44'0 0.0
2019-Apr-22 06:31N 58°58' E 005°44'1 1.8
2019-Apr-22 06:00N 58°59' E 005°43'4 7.4
2019-Apr-22 05:30N 59°02' E 005°37'4 7.1
2019-Apr-22 05:00N 58°59' E 005°33'816.7
2019-Apr-22 04:30N 58°51' E 005°30'612.3
2019-Apr-22 04:00N 58°46' E 005°23'815.2
2019-Apr-22 03:30N 58°39' E 005°19'816.2
2019-Apr-22 03:00N 58°31' E 005°14'816.0
2019-Apr-22 02:30N 58°23' E 005°09'816.0
2019-Apr-22 02:00N 58°15' E 005°06'101274.6
2019-Apr-22 02:00N 58°06' E 005°00'2 5.1 120 / 231018.510.8 9.0 6.9 9.0
2019-Apr-22 01:30N 58°08' E 005°03'815.6
2019-Apr-22 01:00N 58°00' E 004°60'815.7
2019-Apr-22 00:30N 57°52' E 004°57'816.4
2019-Apr-22 00:00N 57°44' E 004°55'817.0
2019-Apr-21 23:30N 57°36' E 004°53'917.7
2019-Apr-21 23:00N 57°27' E 004°50'917.9
2019-Apr-21 22:30N 57°18' E 004°48'1018.0
2019-Apr-21 21:57N 57°09' E 004°45'818.1
2019-Apr-21 21:30N 57°00' E 004°42'1118.1
2019-Apr-21 20:54N 56°50' E 004°39'2918.1
2019-Apr-21 19:19N 56°21' E 004°30'1717.8
2019-Apr-21 18:23N 56°05' E 004°25'512.8
2019-Apr-21 18:00N 56°00' E 004°24'6321.1 130 / 131019.6 5.4 10.0 6.8 9.0
2019-Apr-21 15:00N 55°00' E 003°48'7216.4 120 / 121021.710.8 10.5 7.4 9.0
2019-Apr-21 10:38N 53°50' E 003°22'218.1
2019-Apr-21 10:30N 53°48' E 003°19'2717.8
2019-Apr-21 09:00N 53°25' E 002°56'917.7
2019-Apr-21 08:30N 53°17' E 002°50'917.9
2019-Apr-21 08:00N 53°09' E 002°44'917.7
2019-Apr-21 07:30N 53°00' E 002°41'918.4
2019-Apr-21 07:00N 52°51' E 002°41'101192.4
2019-Apr-21 07:00N 52°42' E 002°36'3 6.4 080 / 221023.6 5.4 11.5 8.5 9.0
2019-Apr-21 06:30N 52°42' E 002°41'1019.4
2019-Apr-21 06:00N 52°32' E 002°41'1019.9
2019-Apr-21 05:30N 52°22' E 002°42'1020.2
2019-Apr-21 05:00N 52°12' E 002°41'1020.2
2019-Apr-21 04:30N 52°02' E 002°41'1020.2
2019-Apr-21 04:00N 51°52' E 002°41'1019.8
2019-Apr-21 03:30N 51°43' E 002°33'1020.1
2019-Apr-21 03:00N 51°35' E 002°24'9549.9
2019-Apr-21 03:00N 51°30' E 002°12'2 4.5 110 / 301022.710.8 13.0 6.810.7
2019-Apr-21 02:30N 51°28' E 002°12'816.9
2019-Apr-21 02:00N 51°20' E 002°07'918.2
2019-Apr-21 01:30N 51°12' E 001°59'1121.3
2019-Apr-21 01:00N 51°07' E 001°44'1121.4
2019-Apr-21 00:30N 50°60' E 001°32'1020.5
2019-Apr-21 00:00N 50°50' E 001°25'1019.6
2019-Apr-20 23:30N 50°41' E 001°19'1019.3
2019-Apr-20 23:00N 50°35' E 001°07'1019.4
2019-Apr-20 22:30N 50°31' E 000°53'1019.6
2019-Apr-20 22:00N 50°28' E 000°38'1020.0
2019-Apr-20 21:30N 50°25' E 000°24'1020.4
2019-Apr-20 21:00N 50°22' E 000°08'918.9
2019-Apr-20 20:30N 50°24' W 000°06'1019.7
2019-Apr-20 20:00N 50°28' W 000°20'1019.3
2019-Apr-20 19:30N 50°32' W 000°34'1019.2
2019-Apr-20 19:00N 50°37' W 000°47'815.6
2019-Apr-20 18:30N 50°41' W 000°57'713.3
2019-Apr-20 18:00N 50°45' W 001°06'816.7
2019-Apr-20 17:30N 50°47' W 001°19'4 8.6
2019-Apr-20 17:00N 50°51' W 001°21'4 8.0
2019-Apr-20 16:30N 50°54' W 001°25'0 0.5
2019-Apr-20 16:00N 50°54' W 001°26'0 0.0
2019-Apr-20 15:30N 50°54' W 001°26'0 0.0
2019-Apr-20 15:00N 50°54' W 001°26'0 0.0
2019-Apr-20 14:30N 50°54' W 001°26'0 0.0
2019-Apr-20 14:00N 50°54' W 001°26'0 0.0
2019-Apr-20 13:30N 50°54' W 001°26'0 0.0
2019-Apr-20 13:00N 50°54' W 001°26'0 0.0
2019-Apr-20 12:30N 50°54' W 001°26'0 0.0
2019-Apr-20 12:00N 50°54' W 001°26'0 0.0
2019-Apr-20 11:29N 50°54' W 001°26'0 0.0
2019-Apr-20 10:56N 50°54' W 001°26'0 0.0
2019-Apr-20 10:29N 50°54' W 001°26'0 0.0
2019-Apr-20 09:59N 50°54' W 001°26'0 0.0
2019-Apr-20 09:26N 50°54' W 001°26'0 0.0
2019-Apr-20 08:59N 50°54' W 001°26'0 0.0
2019-Apr-20 08:28N 50°54' W 001°26'0 0.0
2019-Apr-20 07:52N 50°54' W 001°26'0 0.0
2019-Apr-20 07:29N 50°54' W 001°26'0 0.0
2019-Apr-20 06:58N 50°54' W 001°26'0 0.0
2019-Apr-20 06:28N 50°54' W 001°26'0 0.0
2019-Apr-20 06:00N 50°54' W 001°26'0 0.0
2019-Apr-20 05:30N 50°54' W 001°26'0 0.9
2019-Apr-20 05:00N 50°54' W 001°26'2 4.9
2019-Apr-20 04:30N 50°53' W 001°24'4 8.3
2019-Apr-20 04:01N 50°50' W 001°19'4 8.2
2019-Apr-20 03:31N 50°46' W 001°16'816.4
2019-Apr-20 03:00N 50°44' W 001°03'611.5
2019-Apr-20 02:30N 50°39' W 000°59'510.0
2019-Apr-20 02:00N 50°34' W 001°01'5 9.6
2019-Apr-20 01:30N 50°31' W 001°07'5 9.3
2019-Apr-20 01:00N 50°29' W 001°14'5 9.5
2019-Apr-20 00:30N 50°28' W 001°21'510.7
2019-Apr-20 00:00N 50°26' W 001°29'611.9
2019-Apr-19 23:30N 50°25' W 001°38'612.9
2019-Apr-19 23:00N 50°23' W 001°47'713.9
2019-Apr-19 22:30N 50°21' W 001°58'1714.9
2019-Apr-19 21:23N 50°17' W 002°23'615.4
2019-Apr-19 21:00N 50°15' W 002°32'815.3
2019-Apr-19 20:30N 50°13' W 002°44'815.2
2019-Apr-19 20:00N 50°11' W 002°55'714.6
2019-Apr-19 19:30N 50°07' W 003°04'714.9
2019-Apr-19 19:00N 50°02' W 003°12'714.1
2019-Apr-19 18:31N 49°57' W 003°20'815.0
2019-Apr-19 18:00N 49°51' W 003°28'4248.3
2019-Apr-19 18:00N 49°48' W 003°24'817.4 070 / 131027.6 5.4 13.0 7.911.0
2019-Apr-19 17:30N 49°46' W 003°37'815.2
2019-Apr-19 17:00N 49°41' W 003°46'612.9
2019-Apr-19 16:30N 49°36' W 003°52'713.2
2019-Apr-19 16:00N 49°31' W 003°58'714.4
2019-Apr-19 15:30N 49°26' W 004°06'714.4
2019-Apr-19 15:00N 49°20' W 004°13'9561.9
2019-Apr-19 15:00N 49°12' W 004°18'4 7.4 080 / 191026.7 2.2 12.5 9.612.0
2019-Apr-19 14:30N 49°15' W 004°21'714.2
2019-Apr-19 14:00N 49°10' W 004°28'713.8
2019-Apr-19 13:30N 49°05' W 004°36'713.5
2019-Apr-19 13:00N 49°00' W 004°43'713.0
2019-Apr-19 12:30N 48°55' W 004°50'1012.4
2019-Apr-19 11:40N 48°48' W 005°00'1115.9
2019-Apr-19 10:58N 48°40' W 005°12'1115.4
2019-Apr-19 10:16N 48°31' W 005°23'615.2
2019-Apr-19 09:53N 48°27' W 005°27'715.2
2019-Apr-19 09:25N 48°20' W 005°32'1015.5
2019-Apr-19 08:46N 48°11' W 005°40'415.7
2019-Apr-19 08:30N 48°08' W 005°42'1115.9
2019-Apr-19 07:48N 47°58' W 005°50'2328.2
2019-Apr-19 07:00N 47°36' W 006°00'6817.1 060 / 201022.0 5.4 13.511.612.0
2019-Apr-19 03:00N 46°36' W 006°48'15016.7 010 / 181019.1 12.010.113.0
2019-Apr-18 18:00N 44°24' W 008°30'16515.0 080 / 151016.810.8 14.511.714.0
2019-Apr-18 07:00N 41°48' W 009°42'14414.8 180 / 161010.0 16.012.414.5
2019-Apr-17 21:18N 39°24' W 009°44'415.4
2019-Apr-17 21:00N 39°20' W 009°44'815.2
2019-Apr-17 20:30N 39°12' W 009°44'815.1
2019-Apr-17 20:00N 39°05' W 009°43'815.3
2019-Apr-17 19:30N 38°57' W 009°43'815.2
2019-Apr-17 19:01N 38°50' W 009°42'815.0
2019-Apr-17 18:30N 38°42' W 009°42'612.4
2019-Apr-17 18:01N 38°37' W 009°37'714.9
2019-Apr-17 17:30N 38°37' W 009°27'612.8
2019-Apr-17 17:01N 38°39' W 009°20'612.0
2019-Apr-17 16:28N 38°41' W 009°12'4 8.1
2019-Apr-17 16:00N 38°43' W 009°07'0 0.0
2019-Apr-17 15:28N 38°43' W 009°07'0 0.0
2019-Apr-17 14:47N 38°43' W 009°07'0 0.0
2019-Apr-17 14:17N 38°43' W 009°07'0 0.0
2019-Apr-17 14:00N 38°43' W 009°07'0 0.0
2019-Apr-17 13:07N 38°43' W 009°07'0 0.0
2019-Apr-17 12:59N 38°43' W 009°07'0 0.0
2019-Apr-17 11:21N 38°43' W 009°07'0 0.0
2019-Apr-17 10:57N 38°43' W 009°07'0 0.0
2019-Apr-17 10:27N 38°43' W 009°07'0 0.0
2019-Apr-17 09:34N 38°43' W 009°07'0 0.0
2019-Apr-17 09:28N 38°43' W 009°07'0 0.0
2019-Apr-17 08:58N 38°43' W 009°07'0 0.0
2019-Apr-17 08:23N 38°43' W 009°07'0 0.0
2019-Apr-17 08:00N 38°43' W 009°07'0 0.0
2019-Apr-17 07:26N 38°43' W 009°07'0 0.0
2019-Apr-17 07:00N 38°43' W 009°07'1 1.2
2019-Apr-17 06:30N 38°42' W 009°08'5 9.6
2019-Apr-17 06:00N 38°41' W 009°14'510.9
2019-Apr-17 05:30N 38°39' W 009°20'713.1
2019-Apr-17 05:00N 38°34' W 009°26'713.6
2019-Apr-17 04:30N 38°28' W 009°27'713.9
2019-Apr-17 04:01N 38°21' W 009°27'713.8
2019-Apr-17 03:30N 38°14' W 009°27'713.7
2019-Apr-17 03:00N 38°07' W 009°26'713.9
2019-Apr-17 02:30N 38°00' W 009°25'713.9
2019-Apr-17 02:00N 37°53' W 009°23'714.0
2019-Apr-17 01:30N 37°46' W 009°24'814.2
2019-Apr-17 00:58N 37°39' W 009°24'6412.4
2019-Apr-16 19:48N 36°40' W 008°51'813.8
2019-Apr-16 19:15N 36°38' W 008°42'714.1
2019-Apr-16 18:45N 36°35' W 008°34'2514.3
2019-Apr-16 17:00N 36°24' W 008°06'1314.0 200 / 81013.010.8 16.512.917.0
2019-Apr-16 16:04N 36°23' W 007°50'113.5
2019-Apr-16 15:58N 36°23' W 007°48'613.7
2019-Apr-16 15:30N 36°21' W 007°41'714.2
2019-Apr-16 15:00N 36°19' W 007°32'2222.1
2019-Apr-16 14:00N 36°12' W 007°06'11614.6 090 / 41015.510.8 17.013.517.0
2019-Apr-16 06:00N 36°06' W 004°42'17013.1 280 / 201016.810.8 15.512.816.0
2019-Apr-15 17:00N 37°06' W 001°24'67 4.5 100 / 121013.0 5.4 23.016.517.0
2019-Apr-15 02:00N 37°48' W 000°18'   200 / 161013.910.8 17.013.516.0
Track history (hours):
 
Tides and Currents Weather Stations Pressure Air Temp Water Temp Dewpoint Dewpoint Depression Visibility Wind Speed Wind Dir Waves Ship Positions

Azure

Last reported at 2019-Apr-24 22:00 UTC. Time now 2019-Apr-24 22:11 UTC.
Position N 61°32' E 004°01'.

Length 289 m; draft 8.6 m.

Type: Passenger vessel. MMSI: 310610000.

Date/timePositionNaut miles runAvg speedWind from/ knotsBaromVisibWave heightAir tempDewpointWater temp
2019-Apr-24 22:00N 61°32' E 004°01'714.1
2019-Apr-24 21:30N 61°39' E 004°01'714.3
2019-Apr-24 21:00N 61°46' E 003°60'814.9
2019-Apr-24 20:30N 61°54' E 004°00'714.1
2019-Apr-24 19:59N 62°01' E 004°03'714.5
2019-Apr-24 19:30N 62°05' E 004°15'714.5
2019-Apr-24 19:00N 62°10' E 004°27'714.5
2019-Apr-24 18:30N 62°15' E 004°38'714.6
2019-Apr-24 18:00N 62°20' E 004°50'714.6
2019-Apr-24 17:30N 62°25' E 005°01'714.5
2019-Apr-24 17:00N 62°29' E 005°12'714.3
2019-Apr-24 16:30N 62°31' E 005°28'714.4
2019-Apr-24 16:00N 62°30' E 005°43'714.7
2019-Apr-24 15:30N 62°27' E 005°58'611.1
2019-Apr-24 14:58N 62°27' E 006°10'1 1.8
2019-Apr-24 14:29N 62°28' E 006°09'0 0.0
2019-Apr-24 13:46N 62°28' E 006°09'0 0.0
2019-Apr-24 13:22N 62°28' E 006°09'0 0.0
2019-Apr-24 12:34N 62°28' E 006°09'0 0.0
2019-Apr-24 12:28N 62°28' E 006°09'0 0.0
2019-Apr-24 12:00N 62°28' E 006°09'0 0.0
2019-Apr-24 11:29N 62°28' E 006°09'0 0.0
2019-Apr-24 10:56N 62°28' E 006°09'0 0.0
2019-Apr-24 10:29N 62°28' E 006°09'0 0.0
2019-Apr-24 09:56N 62°28' E 006°09'0 0.0
2019-Apr-24 09:29N 62°28' E 006°09'0 0.0
2019-Apr-24 08:59N 62°28' E 006°09'0 0.0
2019-Apr-24 08:29N 62°28' E 006°09'0 0.0
2019-Apr-24 08:00N 62°28' E 006°09'0 0.0
2019-Apr-24 07:22N 62°28' E 006°09'0 0.0
2019-Apr-24 06:58N 62°28' E 006°09'0 0.0
2019-Apr-24 06:22N 62°28' E 006°09'0 0.0
2019-Apr-24 05:58N 62°28' E 006°09'0 0.0
2019-Apr-24 05:29N 62°28' E 006°09'1 1.4
2019-Apr-24 05:00N 62°28' E 006°11'3 5.5
2019-Apr-24 04:29N 62°27' E 006°05'510.4
2019-Apr-24 04:00N 62°27' E 005°54'510.2
2019-Apr-24 03:30N 62°30' E 005°45'510.2
2019-Apr-24 03:00N 62°32' E 005°34'510.3
2019-Apr-24 02:30N 62°34' E 005°24'510.3
2019-Apr-24 02:00N 62°33' E 005°13'510.3
2019-Apr-24 01:30N 62°33' E 005°02'510.3
2019-Apr-24 01:00N 62°33' E 004°51'510.4
2019-Apr-24 00:30N 62°33' E 004°39'511.0
2019-Apr-24 00:00N 62°33' E 004°28'5 9.9
2019-Apr-23 23:30N 62°28' E 004°23'611.8
2019-Apr-23 23:00N 62°22' E 004°22'611.3
2019-Apr-23 22:30N 62°17' E 004°21'611.0
2019-Apr-23 21:59N 62°11' E 004°21'611.1
2019-Apr-23 21:29N 62°05' E 004°21'510.3
2019-Apr-23 20:59N 62°01' E 004°27'611.4
2019-Apr-23 20:30N 62°01' E 004°38'610.8
2019-Apr-23 19:58N 61°60' E 004°50'611.8
2019-Apr-23 19:30N 61°56' E 004°60'612.6
2019-Apr-23 19:00N 61°54' E 005°12'917.5
2019-Apr-23 18:30N 61°55' E 005°30'816.8
2019-Apr-23 18:00N 61°52' E 005°47'916.9
2019-Apr-23 17:30N 61°51' E 006°05'917.3
2019-Apr-23 17:00N 61°50' E 006°23'5 0.4
2019-Apr-23 05:37N 61°50' E 006°32'218.0
2019-Apr-23 05:30N 61°49' E 006°28'917.7
2019-Apr-23 05:00N 61°51' E 006°10'917.1
2019-Apr-23 04:30N 61°52' E 005°52'816.0
2019-Apr-23 04:00N 61°54' E 005°36'917.6
2019-Apr-23 03:30N 61°54' E 005°17'815.6
2019-Apr-23 03:00N 61°56' E 005°01'713.9
2019-Apr-23 02:30N 61°59' E 004°47'917.2
2019-Apr-23 02:00N 61°53' E 004°33'123258.6
2019-Apr-23 02:00N 61°42' E 004°24'4 7.3 140 / 251016.827.0 10.0 5.6 9.0
2019-Apr-23 01:30N 61°46' E 004°25'815.2
2019-Apr-23 00:59N 61°38' E 004°20'816.0
2019-Apr-23 00:30N 61°30' E 004°18'816.5
2019-Apr-23 00:00N 61°22' E 004°16'817.0
2019-Apr-22 23:30N 61°14' E 004°14'917.0
2019-Apr-22 23:00N 61°05' E 004°12'917.5
2019-Apr-22 22:30N 60°57' E 004°09'918.3
2019-Apr-22 22:00N 60°47' E 004°08'918.6
2019-Apr-22 21:30N 60°38' E 004°10'918.4
2019-Apr-22 21:00N 60°29' E 004°13'131492.5
2019-Apr-22 21:00N 60°42' E 004°06'2245.2 140 / 171016.427.0 10.0 6.8 8.0
2019-Apr-22 20:30N 60°20' E 004°10'918.1
2019-Apr-22 20:00N 60°11' E 004°12'918.5
2019-Apr-22 19:30N 60°02' E 004°19'918.5
2019-Apr-22 19:00N 59°54' E 004°26'918.5
2019-Apr-22 18:30N 59°45' E 004°33'918.0
2019-Apr-22 18:00N 59°37' E 004°40'918.1
2019-Apr-22 17:30N 59°29' E 004°48'918.4
2019-Apr-22 17:00N 59°21' E 004°56'918.5
2019-Apr-22 16:30N 59°12' E 005°02'816.8
2019-Apr-22 16:01N 59°06' E 005°14'917.5
2019-Apr-22 15:30N 59°06' E 005°31'816.6
2019-Apr-22 15:00N 58°60' E 005°42'2 3.1
2019-Apr-22 14:27N 58°58' E 005°44'0 0.0
2019-Apr-22 14:00N 58°58' E 005°44'0 0.0
2019-Apr-22 13:26N 58°58' E 005°44'0 0.0
2019-Apr-22 12:51N 58°58' E 005°44'0 0.0
2019-Apr-22 12:30N 58°58' E 005°44'0 0.0
2019-Apr-22 11:59N 58°58' E 005°44'0 0.0
2019-Apr-22 11:29N 58°58' E 005°44'0 0.0
2019-Apr-22 10:58N 58°58' E 005°44'0 0.0
2019-Apr-22 10:22N 58°58' E 005°44'0 0.0
2019-Apr-22 09:57N 58°58' E 005°44'0 0.0
2019-Apr-22 09:31N 58°58' E 005°44'0 0.0
2019-Apr-22 08:59N 58°58' E 005°44'0 0.0
2019-Apr-22 08:25N 58°58' E 005°44'0 0.0
2019-Apr-22 08:00N 58°58' E 005°44'0 0.0
2019-Apr-22 07:29N 58°58' E 005°44'0 0.0
2019-Apr-22 06:59N 58°58' E 005°44'0 0.0
2019-Apr-22 06:31N 58°58' E 005°44'1 1.8
2019-Apr-22 06:00N 58°59' E 005°43'4 7.4
2019-Apr-22 05:30N 59°02' E 005°37'4 7.1
2019-Apr-22 05:00N 58°59' E 005°33'816.7
2019-Apr-22 04:30N 58°51' E 005°30'612.3
2019-Apr-22 04:00N 58°46' E 005°23'815.2
2019-Apr-22 03:30N 58°39' E 005°19'816.2
2019-Apr-22 03:00N 58°31' E 005°14'816.0
2019-Apr-22 02:30N 58°23' E 005°09'816.0
2019-Apr-22 02:00N 58°15' E 005°06'101274.6
2019-Apr-22 02:00N 58°06' E 005°00'2 5.1 120 / 231018.510.8 9.0 6.9 9.0
2019-Apr-22 01:30N 58°08' E 005°03'815.6
2019-Apr-22 01:00N 58°00' E 004°60'815.7
2019-Apr-22 00:30N 57°52' E 004°57'816.4
2019-Apr-22 00:00N 57°44' E 004°55'817.0
2019-Apr-21 23:30N 57°36' E 004°53'917.7
2019-Apr-21 23:00N 57°27' E 004°50'917.9
2019-Apr-21 22:30N 57°18' E 004°48'1018.0
2019-Apr-21 21:57N 57°09' E 004°45'818.1
2019-Apr-21 21:30N 57°00' E 004°42'1118.1
2019-Apr-21 20:54N 56°50' E 004°39'2918.1
2019-Apr-21 19:19N 56°21' E 004°30'1717.8
2019-Apr-21 18:23N 56°05' E 004°25'512.8
2019-Apr-21 18:00N 56°00' E 004°24'6321.1 130 / 131019.6 5.4 10.0 6.8 9.0
2019-Apr-21 15:00N 55°00' E 003°48'7216.4 120 / 121021.710.8 10.5 7.4 9.0
2019-Apr-21 10:38N 53°50' E 003°22'218.1
2019-Apr-21 10:30N 53°48' E 003°19'2717.8
2019-Apr-21 09:00N 53°25' E 002°56'917.7
2019-Apr-21 08:30N 53°17' E 002°50'917.9
2019-Apr-21 08:00N 53°09' E 002°44'917.7
2019-Apr-21 07:30N 53°00' E 002°41'918.4
2019-Apr-21 07:00N 52°51' E 002°41'101192.4
2019-Apr-21 07:00N 52°42' E 002°36'3 6.4 080 / 221023.6 5.4 11.5 8.5 9.0
2019-Apr-21 06:30N 52°42' E 002°41'1019.4
2019-Apr-21 06:00N 52°32' E 002°41'1019.9
2019-Apr-21 05:30N 52°22' E 002°42'1020.2
2019-Apr-21 05:00N 52°12' E 002°41'1020.2
2019-Apr-21 04:30N 52°02' E 002°41'1020.2
2019-Apr-21 04:00N 51°52' E 002°41'1019.8
2019-Apr-21 03:30N 51°43' E 002°33'1020.1
2019-Apr-21 03:00N 51°35' E 002°24'9549.9
2019-Apr-21 03:00N 51°30' E 002°12'2 4.5 110 / 301022.710.8 13.0 6.810.7
2019-Apr-21 02:30N 51°28' E 002°12'816.9
2019-Apr-21 02:00N 51°20' E 002°07'918.2
2019-Apr-21 01:30N 51°12' E 001°59'1121.3
2019-Apr-21 01:00N 51°07' E 001°44'1121.4
2019-Apr-21 00:30N 50°60' E 001°32'1020.5
2019-Apr-21 00:00N 50°50' E 001°25'1019.6
2019-Apr-20 23:30N 50°41' E 001°19'1019.3
2019-Apr-20 23:00N 50°35' E 001°07'1019.4
2019-Apr-20 22:30N 50°31' E 000°53'1019.6
2019-Apr-20 22:00N 50°28' E 000°38'1020.0
2019-Apr-20 21:30N 50°25' E 000°24'1020.4
2019-Apr-20 21:00N 50°22' E 000°08'918.9
2019-Apr-20 20:30N 50°24' W 000°06'1019.7
2019-Apr-20 20:00N 50°28' W 000°20'1019.3
2019-Apr-20 19:30N 50°32' W 000°34'1019.2
2019-Apr-20 19:00N 50°37' W 000°47'815.6
2019-Apr-20 18:30N 50°41' W 000°57'713.3
2019-Apr-20 18:00N 50°45' W 001°06'816.7
2019-Apr-20 17:30N 50°47' W 001°19'4 8.6
2019-Apr-20 17:00N 50°51' W 001°21'4 8.0
2019-Apr-20 16:30N 50°54' W 001°25'0 0.5
2019-Apr-20 16:00N 50°54' W 001°26'0 0.0
2019-Apr-20 15:30N 50°54' W 001°26'0 0.0
2019-Apr-20 15:00N 50°54' W 001°26'0 0.0
2019-Apr-20 14:30N 50°54' W 001°26'0 0.0
2019-Apr-20 14:00N 50°54' W 001°26'0 0.0
2019-Apr-20 13:30N 50°54' W 001°26'0 0.0
2019-Apr-20 13:00N 50°54' W 001°26'0 0.0
2019-Apr-20 12:30N 50°54' W 001°26'0 0.0
2019-Apr-20 12:00N 50°54' W 001°26'0 0.0
2019-Apr-20 11:29N 50°54' W 001°26'0 0.0
2019-Apr-20 10:56N 50°54' W 001°26'0 0.0
2019-Apr-20 10:29N 50°54' W 001°26'0 0.0
2019-Apr-20 09:59N 50°54' W 001°26'0 0.0
2019-Apr-20 09:26N 50°54' W 001°26'0 0.0
2019-Apr-20 08:59N 50°54' W 001°26'0 0.0
2019-Apr-20 08:28N 50°54' W 001°26'0 0.0
2019-Apr-20 07:52N 50°54' W 001°26'0 0.0
2019-Apr-20 07:29N 50°54' W 001°26'0 0.0
2019-Apr-20 06:58N 50°54' W 001°26'0 0.0
2019-Apr-20 06:28N 50°54' W 001°26'0 0.0
2019-Apr-20 06:00N 50°54' W 001°26'0 0.0
2019-Apr-20 05:30N 50°54' W 001°26'0 0.9
2019-Apr-20 05:00N 50°54' W 001°26'2 4.9
2019-Apr-20 04:30N 50°53' W 001°24'4 8.3
2019-Apr-20 04:01N 50°50' W 001°19'4 8.2
2019-Apr-20 03:31N 50°46' W 001°16'816.4
2019-Apr-20 03:00N 50°44' W 001°03'611.5
2019-Apr-20 02:30N 50°39' W 000°59'510.0
2019-Apr-20 02:00N 50°34' W 001°01'5 9.6
2019-Apr-20 01:30N 50°31' W 001°07'5 9.3
2019-Apr-20 01:00N 50°29' W 001°14'5 9.5
2019-Apr-20 00:30N 50°28' W 001°21'510.7
2019-Apr-20 00:00N 50°26' W 001°29'611.9
2019-Apr-19 23:30N 50°25' W 001°38'612.9
2019-Apr-19 23:00N 50°23' W 001°47'713.9
2019-Apr-19 22:30N 50°21' W 001°58'1714.9
2019-Apr-19 21:23N 50°17' W 002°23'615.4
2019-Apr-19 21:00N 50°15' W 002°32'815.3
2019-Apr-19 20:30N 50°13' W 002°44'815.2
2019-Apr-19 20:00N 50°11' W 002°55'714.6
2019-Apr-19 19:30N 50°07' W 003°04'714.9
2019-Apr-19 19:00N 50°02' W 003°12'714.1
2019-Apr-19 18:31N 49°57' W 003°20'815.0
2019-Apr-19 18:00N 49°51' W 003°28'4248.3
2019-Apr-19 18:00N 49°48' W 003°24'817.4 070 / 131027.6 5.4 13.0 7.911.0
2019-Apr-19 17:30N 49°46' W 003°37'815.2
2019-Apr-19 17:00N 49°41' W 003°46'612.9
2019-Apr-19 16:30N 49°36' W 003°52'713.2
2019-Apr-19 16:00N 49°31' W 003°58'714.4
2019-Apr-19 15:30N 49°26' W 004°06'714.4
2019-Apr-19 15:00N 49°20' W 004°13'9561.9
2019-Apr-19 15:00N 49°12' W 004°18'4 7.4 080 / 191026.7 2.2 12.5 9.612.0
2019-Apr-19 14:30N 49°15' W 004°21'714.2
2019-Apr-19 14:00N 49°10' W 004°28'713.8
2019-Apr-19 13:30N 49°05' W 004°36'713.5
2019-Apr-19 13:00N 49°00' W 004°43'713.0
2019-Apr-19 12:30N 48°55' W 004°50'1012.4
2019-Apr-19 11:40N 48°48' W 005°00'1115.9
2019-Apr-19 10:58N 48°40' W 005°12'1115.4
2019-Apr-19 10:16N 48°31' W 005°23'615.2
2019-Apr-19 09:53N 48°27' W 005°27'715.2
2019-Apr-19 09:25N 48°20' W 005°32'1015.5
2019-Apr-19 08:46N 48°11' W 005°40'415.7
2019-Apr-19 08:30N 48°08' W 005°42'1115.9
2019-Apr-19 07:48N 47°58' W 005°50'2328.2
2019-Apr-19 07:00N 47°36' W 006°00'6817.1 060 / 201022.0 5.4 13.511.612.0
2019-Apr-19 03:00N 46°36' W 006°48'15016.7 010 / 181019.1 12.010.113.0
2019-Apr-18 18:00N 44°24' W 008°30'16515.0 080 / 151016.810.8 14.511.714.0
2019-Apr-18 07:00N 41°48' W 009°42'14414.8 180 / 161010.0 16.012.414.5
2019-Apr-17 21:18N 39°24' W 009°44'415.4
2019-Apr-17 21:00N 39°20' W 009°44'815.2
2019-Apr-17 20:30N 39°12' W 009°44'815.1
2019-Apr-17 20:00N 39°05' W 009°43'815.3
2019-Apr-17 19:30N 38°57' W 009°43'815.2
2019-Apr-17 19:01N 38°50' W 009°42'815.0
2019-Apr-17 18:30N 38°42' W 009°42'612.4
2019-Apr-17 18:01N 38°37' W 009°37'714.9
2019-Apr-17 17:30N 38°37' W 009°27'612.8
2019-Apr-17 17:01N 38°39' W 009°20'612.0
2019-Apr-17 16:28N 38°41' W 009°12'4 8.1
2019-Apr-17 16:00N 38°43' W 009°07'0 0.0
2019-Apr-17 15:28N 38°43' W 009°07'0 0.0
2019-Apr-17 14:47N 38°43' W 009°07'0 0.0
2019-Apr-17 14:17N 38°43' W 009°07'0 0.0
2019-Apr-17 14:00N 38°43' W 009°07'0 0.0
2019-Apr-17 13:07N 38°43' W 009°07'0 0.0
2019-Apr-17 12:59N 38°43' W 009°07'0 0.0
2019-Apr-17 11:21N 38°43' W 009°07'0 0.0
2019-Apr-17 10:57N 38°43' W 009°07'0 0.0
2019-Apr-17 10:27N 38°43' W 009°07'0 0.0
2019-Apr-17 09:34N 38°43' W 009°07'0 0.0
2019-Apr-17 09:28N 38°43' W 009°07'0 0.0
2019-Apr-17 08:58N 38°43' W 009°07'0 0.0
2019-Apr-17 08:23N 38°43' W 009°07'0 0.0
2019-Apr-17 08:00N 38°43' W 009°07'0 0.0
2019-Apr-17 07:26N 38°43' W 009°07'0 0.0
2019-Apr-17 07:00N 38°43' W 009°07'1 1.2
2019-Apr-17 06:30N 38°42' W 009°08'5 9.6
2019-Apr-17 06:00N 38°41' W 009°14'510.9
2019-Apr-17 05:30N 38°39' W 009°20'713.1
2019-Apr-17 05:00N 38°34' W 009°26'713.6
2019-Apr-17 04:30N 38°28' W 009°27'713.9
2019-Apr-17 04:01N 38°21' W 009°27'713.8
2019-Apr-17 03:30N 38°14' W 009°27'713.7
2019-Apr-17 03:00N 38°07' W 009°26'713.9
2019-Apr-17 02:30N 38°00' W 009°25'713.9
2019-Apr-17 02:00N 37°53' W 009°23'714.0
2019-Apr-17 01:30N 37°46' W 009°24'814.2
2019-Apr-17 00:58N 37°39' W 009°24'6412.4
2019-Apr-16 19:48N 36°40' W 008°51'813.8
2019-Apr-16 19:15N 36°38' W 008°42'714.1
2019-Apr-16 18:45N 36°35' W 008°34'2514.3
2019-Apr-16 17:00N 36°24' W 008°06'1314.0 200 / 81013.010.8 16.512.917.0
2019-Apr-16 16:04N 36°23' W 007°50'113.5
2019-Apr-16 15:58N 36°23' W 007°48'613.7
2019-Apr-16 15:30N 36°21' W 007°41'714.2
2019-Apr-16 15:00N 36°19' W 007°32'2222.1
2019-Apr-16 14:00N 36°12' W 007°06'11614.6 090 / 41015.510.8 17.013.517.0
2019-Apr-16 06:00N 36°06' W 004°42'17013.1 280 / 201016.810.8 15.512.816.0
2019-Apr-15 17:00N 37°06' W 001°24'67 4.5 100 / 121013.0 5.4 23.016.517.0
2019-Apr-15 02:00N 37°48' W 000°18'   200 / 161013.910.8 17.013.516.0

Dump ship's entire track history